sensor_id;sensor_type;location;lat;lon;timestamp;pressure;altitude;pressure_sealevel;temperature;humidity
54453;BME280;40363;52.270;10.546;2022-12-16T00:01:20;78483.50;;;-147.06;88.46
54453;BME280;40363;52.270;10.546;2022-12-16T00:03:48;78495.84;;;-147.06;88.72
54453;BME280;40363;52.270;10.546;2022-12-16T00:06:15;78499.94;;;-147.06;88.62
54453;BME280;40363;52.270;10.546;2022-12-16T00:08:41;78504.06;;;-147.06;88.49
54453;BME280;40363;52.270;10.546;2022-12-16T00:11:08;78516.41;;;-147.06;88.37
54453;BME280;40363;52.270;10.546;2022-12-16T00:13:35;78524.63;;;-147.06;87.92
54453;BME280;40363;52.270;10.546;2022-12-16T00:16:03;78528.75;;;-147.06;88.85
54453;BME280;40363;52.270;10.546;2022-12-16T00:18:31;78532.84;;;-147.06;88.95
54453;BME280;40363;52.270;10.546;2022-12-16T00:20:59;78534.91;;;-147.06;88.39
54453;BME280;40363;52.270;10.546;2022-12-16T00:23:26;78534.91;;;-147.06;88.02
54453;BME280;40363;52.270;10.546;2022-12-16T00:25:52;78545.19;;;-147.06;88.00
54453;BME280;40363;52.270;10.546;2022-12-16T00:28:19;78559.59;;;-147.06;88.40
54453;BME280;40363;52.270;10.546;2022-12-16T00:30:47;78571.94;;;-147.06;88.97
54453;BME280;40363;52.270;10.546;2022-12-16T00:33:13;78582.22;;;-147.06;89.15
54453;BME280;40363;52.270;10.546;2022-12-16T00:35:41;78600.72;;;-147.06;89.69
54453;BME280;40363;52.270;10.546;2022-12-16T00:38:08;78602.78;;;-147.06;89.51
54453;BME280;40363;52.270;10.546;2022-12-16T00:40:34;78600.72;;;-147.06;88.89
54453;BME280;40363;52.270;10.546;2022-12-16T00:43:01;78606.88;;;-147.06;88.52
54453;BME280;40363;52.270;10.546;2022-12-16T00:45:28;78606.88;;;-147.06;88.70
54453;BME280;40363;52.270;10.546;2022-12-16T00:47:54;78604.84;;;-147.06;88.47
54453;BME280;40363;52.270;10.546;2022-12-16T00:50:22;78613.06;;;-147.06;88.55
54453;BME280;40363;52.270;10.546;2022-12-16T00:52:50;78611.00;;;-147.06;88.87
54453;BME280;40363;52.270;10.546;2022-12-16T00:55:17;78621.28;;;-147.06;88.90
54453;BME280;40363;52.270;10.546;2022-12-16T00:57:43;78615.13;;;-147.06;88.93
54453;BME280;40363;52.270;10.546;2022-12-16T01:00:11;78615.13;;;-147.06;88.25
54453;BME280;40363;52.270;10.546;2022-12-16T01:02:38;78615.13;;;-147.06;88.09
54453;BME280;40363;52.270;10.546;2022-12-16T01:05:05;78629.50;;;-147.06;88.60
54453;BME280;40363;52.270;10.546;2022-12-16T01:07:32;78629.50;;;-147.06;88.19
54453;BME280;40363;52.270;10.546;2022-12-16T01:09:59;78639.78;;;-147.06;87.71
54453;BME280;40363;52.270;10.546;2022-12-16T01:12:26;78635.69;;;-147.06;88.04
54453;BME280;40363;52.270;10.546;2022-12-16T01:14:53;78639.78;;;-147.06;88.27
54453;BME280;40363;52.270;10.546;2022-12-16T01:17:19;78643.91;;;-147.06;87.70
54453;BME280;40363;52.270;10.546;2022-12-16T01:19:46;78650.06;;;-147.06;87.22
54453;BME280;40363;52.270;10.546;2022-12-16T01:22:12;78650.06;;;-147.06;87.08
54453;BME280;40363;52.270;10.546;2022-12-16T01:24:39;78658.31;;;-147.06;87.42
54453;BME280;40363;52.270;10.546;2022-12-16T01:27:07;78668.59;;;-147.06;87.79
54453;BME280;40363;52.270;10.546;2022-12-16T01:29:33;78701.50;;;-147.06;88.58
54453;BME280;40363;52.270;10.546;2022-12-16T01:32:00;78701.50;;;-147.06;88.98
54453;BME280;40363;52.270;10.546;2022-12-16T01:34:26;78697.38;;;-147.06;88.96
54453;BME280;40363;52.270;10.546;2022-12-16T01:36:52;78685.03;;;-147.06;88.42
54453;BME280;40363;52.270;10.546;2022-12-16T01:39:19;78699.44;;;-147.06;87.94
54453;BME280;40363;52.270;10.546;2022-12-16T01:41:45;78703.53;;;-147.06;88.14
54453;BME280;40363;52.270;10.546;2022-12-16T01:44:14;78705.59;;;-147.06;88.81
54453;BME280;40363;52.270;10.546;2022-12-16T01:46:41;78695.31;;;-147.06;88.08
54453;BME280;40363;52.270;10.546;2022-12-16T01:49:09;78695.31;;;-147.06;87.31
54453;BME280;40363;52.270;10.546;2022-12-16T01:51:39;78691.19;;;-147.06;87.06
54453;BME280;40363;52.270;10.546;2022-12-16T01:54:08;78701.50;;;-147.06;87.18
54453;BME280;40363;52.270;10.546;2022-12-16T01:56:38;78701.50;;;-147.06;87.11
54453;BME280;40363;52.270;10.546;2022-12-16T01:59:06;78707.66;;;-147.06;87.34
54453;BME280;40363;52.270;10.546;2022-12-16T02:01:35;78697.38;;;-147.06;87.67
54453;BME280;40363;52.270;10.546;2022-12-16T02:04:01;78699.44;;;-147.06;87.71
54453;BME280;40363;52.270;10.546;2022-12-16T02:06:28;78685.03;;;-147.06;87.31
54453;BME280;40363;52.270;10.546;2022-12-16T02:08:55;78689.16;;;-147.06;86.88
54453;BME280;40363;52.270;10.546;2022-12-16T02:14:12;78695.31;;;-147.06;87.41
54453;BME280;40363;52.270;10.546;2022-12-16T02:16:48;78697.38;;;-147.06;87.31
54453;BME280;40363;52.270;10.546;2022-12-16T02:19:36;78693.25;;;-147.06;86.74
54453;BME280;40363;52.270;10.546;2022-12-16T02:22:07;78693.25;;;-147.06;86.71
54453;BME280;40363;52.270;10.546;2022-12-16T02:24:51;78705.59;;;-147.06;86.66
54453;BME280;40363;52.270;10.546;2022-12-16T02:27:27;78707.66;;;-147.06;86.96
54453;BME280;40363;52.270;10.546;2022-12-16T02:30:03;78705.59;;;-147.06;87.19
54453;BME280;40363;52.270;10.546;2022-12-16T02:32:34;78701.50;;;-147.06;86.36
54453;BME280;40363;52.270;10.546;2022-12-16T02:35:04;78709.72;;;-147.06;86.23
54453;BME280;40363;52.270;10.546;2022-12-16T02:37:36;78715.88;;;-147.06;86.67
54453;BME280;40363;52.270;10.546;2022-12-16T02:40:09;78703.53;;;-147.06;87.30
54453;BME280;40363;52.270;10.546;2022-12-16T02:42:37;78705.59;;;-147.06;87.13
54453;BME280;40363;52.270;10.546;2022-12-16T02:45:09;78709.72;;;-147.06;87.16
54453;BME280;40363;52.270;10.546;2022-12-16T02:47:38;78705.59;;;-147.06;86.72
54453;BME280;40363;52.270;10.546;2022-12-16T02:50:05;78707.66;;;-147.06;86.30
54453;BME280;40363;52.270;10.546;2022-12-16T02:52:40;78715.88;;;-147.06;86.59
54453;BME280;40363;52.270;10.546;2022-12-16T02:55:07;78713.81;;;-147.06;86.27
54453;BME280;40363;52.270;10.546;2022-12-16T02:57:44;78701.50;;;-147.06;86.32
54453;BME280;40363;52.270;10.546;2022-12-16T03:00:16;78713.81;;;-147.06;86.28
54453;BME280;40363;52.270;10.546;2022-12-16T03:02:46;78703.53;;;-147.06;86.28
54453;BME280;40363;52.270;10.546;2022-12-16T03:05:15;78709.72;;;-147.06;86.12
54453;BME280;40363;52.270;10.546;2022-12-16T03:07:44;78699.44;;;-147.06;85.98
54453;BME280;40363;52.270;10.546;2022-12-16T03:10:15;78705.59;;;-147.06;85.87
54453;BME280;40363;52.270;10.546;2022-12-16T03:12:43;78713.81;;;-147.06;85.41
54453;BME280;40363;52.270;10.546;2022-12-16T03:15:09;78724.09;;;-147.06;85.62
54453;BME280;40363;52.270;10.546;2022-12-16T03:17:36;78709.72;;;-147.06;85.81
54453;BME280;40363;52.270;10.546;2022-12-16T03:20:06;78711.78;;;-147.06;85.55
54453;BME280;40363;52.270;10.546;2022-12-16T03:22:34;78728.22;;;-147.06;85.33
54453;BME280;40363;52.270;10.546;2022-12-16T03:25:02;78736.44;;;-147.06;85.49
54453;BME280;40363;52.270;10.546;2022-12-16T03:27:30;78746.72;;;-147.06;85.85
54453;BME280;40363;52.270;10.546;2022-12-16T03:30:00;78738.50;;;-147.06;85.70
54453;BME280;40363;52.270;10.546;2022-12-16T03:32:30;78748.78;;;-147.06;85.49
54453;BME280;40363;52.270;10.546;2022-12-16T03:34:58;78754.97;;;-147.06;85.46
54453;BME280;40363;52.270;10.546;2022-12-16T03:37:28;78765.25;;;-147.06;85.97
54453;BME280;40363;52.270;10.546;2022-12-16T03:39:57;78779.63;;;-147.06;86.35
54453;BME280;40363;52.270;10.546;2022-12-16T03:42:24;78767.28;;;-147.06;86.01
54453;BME280;40363;52.270;10.546;2022-12-16T03:44:51;78767.28;;;-147.06;86.17
54453;BME280;40363;52.270;10.546;2022-12-16T03:47:18;78771.41;;;-147.06;85.87
54453;BME280;40363;52.270;10.546;2022-12-16T03:49:44;78775.53;;;-147.06;86.23
54453;BME280;40363;52.270;10.546;2022-12-16T03:52:11;78779.63;;;-147.06;86.24
54453;BME280;40363;52.270;10.546;2022-12-16T03:54:38;78775.53;;;-147.06;86.47
54453;BME280;40363;52.270;10.546;2022-12-16T03:57:05;78767.28;;;-147.06;86.52
54453;BME280;40363;52.270;10.546;2022-12-16T03:59:31;78761.13;;;-147.06;86.14
54453;BME280;40363;52.270;10.546;2022-12-16T04:01:57;78759.06;;;-147.06;85.79
54453;BME280;40363;52.270;10.546;2022-12-16T04:04:24;78763.19;;;-147.06;85.47
54453;BME280;40363;52.270;10.546;2022-12-16T04:06:51;78775.53;;;-147.06;85.18
54453;BME280;40363;52.270;10.546;2022-12-16T04:09:31;78779.63;;;-147.06;84.98
54453;BME280;40363;52.270;10.546;2022-12-16T04:11:59;78789.91;;;-147.06;84.75
54453;BME280;40363;52.270;10.546;2022-12-16T04:14:43;78798.16;;;-147.06;84.71
54453;BME280;40363;52.270;10.546;2022-12-16T04:17:26;78804.31;;;-147.06;85.02
54453;BME280;40363;52.270;10.546;2022-12-16T04:20:12;78800.19;;;-147.06;85.31
54453;BME280;40363;52.270;10.546;2022-12-16T04:22:57;78816.66;;;-147.06;85.04
54453;BME280;40363;52.270;10.546;2022-12-16T04:25:41;78820.75;;;-147.06;85.23
54453;BME280;40363;52.270;10.546;2022-12-16T04:28:09;78824.88;;;-147.06;85.53
54453;BME280;40363;52.270;10.546;2022-12-16T04:30:35;78835.16;;;-147.06;85.68
54453;BME280;40363;52.270;10.546;2022-12-16T04:33:02;78845.44;;;-147.06;86.02
54453;BME280;40363;52.270;10.546;2022-12-16T04:35:47;78839.28;;;-147.06;85.42
54453;BME280;40363;52.270;10.546;2022-12-16T04:38:31;78835.16;;;-147.06;85.21
54453;BME280;40363;52.270;10.546;2022-12-16T04:41:15;78837.22;;;-147.06;85.18
54453;BME280;40363;52.270;10.546;2022-12-16T04:44:00;78841.34;;;-147.06;85.16
54453;BME280;40363;52.270;10.546;2022-12-16T04:46:44;78870.13;;;-147.06;85.56
54453;BME280;40363;52.270;10.546;2022-12-16T04:49:28;78855.72;;;-147.06;85.38
54453;BME280;40363;52.270;10.546;2022-12-16T04:52:12;78851.63;;;-147.06;84.70
54453;BME280;40363;52.270;10.546;2022-12-16T04:54:56;78851.63;;;-147.06;84.78
54453;BME280;40363;52.270;10.546;2022-12-16T04:57:40;78851.63;;;-147.06;84.93
54453;BME280;40363;52.270;10.546;2022-12-16T05:00:27;78849.56;;;-147.06;84.98
54453;BME280;40363;52.270;10.546;2022-12-16T05:03:11;78853.66;;;-147.06;85.90
54453;BME280;40363;52.270;10.546;2022-12-16T05:05:55;78849.56;;;-147.06;86.20
54453;BME280;40363;52.270;10.546;2022-12-16T05:08:39;78843.38;;;-147.06;85.65
54453;BME280;40363;52.270;10.546;2022-12-16T05:11:23;78831.03;;;-147.06;85.76
54453;BME280;40363;52.270;10.546;2022-12-16T05:14:07;78824.88;;;-147.06;84.85
54453;BME280;40363;52.270;10.546;2022-12-16T05:16:52;78835.16;;;-147.06;83.80
54453;BME280;40363;52.270;10.546;2022-12-16T05:19:36;78820.75;;;-147.06;84.04
54453;BME280;40363;52.270;10.546;2022-12-16T05:22:20;78824.88;;;-147.06;84.24
54453;BME280;40363;52.270;10.546;2022-12-16T05:25:04;78829.00;;;-147.06;84.12
54453;BME280;40363;52.270;10.546;2022-12-16T05:27:49;78822.81;;;-147.06;83.79
54453;BME280;40363;52.270;10.546;2022-12-16T05:30:33;78847.50;;;-147.06;83.63
54453;BME280;40363;52.270;10.546;2022-12-16T05:33:18;78857.78;;;-147.06;83.46
54453;BME280;40363;52.270;10.546;2022-12-16T05:36:02;78872.19;;;-147.06;83.68
54453;BME280;40363;52.270;10.546;2022-12-16T05:38:46;78876.28;;;-147.06;84.17
54453;BME280;40363;52.270;10.546;2022-12-16T05:41:30;78870.13;;;-147.06;84.20
54453;BME280;40363;52.270;10.546;2022-12-16T05:44:14;78849.56;;;-147.06;84.57
54453;BME280;40363;52.270;10.546;2022-12-16T05:46:58;78855.72;;;-147.06;84.35
54453;BME280;40363;52.270;10.546;2022-12-16T05:49:43;78863.94;;;-147.06;84.53
54453;BME280;40363;52.270;10.546;2022-12-16T05:52:27;78855.72;;;-147.06;84.63
54453;BME280;40363;52.270;10.546;2022-12-16T05:55:11;78890.69;;;-147.06;85.68
54453;BME280;40363;52.270;10.546;2022-12-16T05:57:55;78868.06;;;-147.06;85.74
54453;BME280;40363;52.270;10.546;2022-12-16T06:00:39;78845.44;;;-147.06;85.45
54453;BME280;40363;52.270;10.546;2022-12-16T06:03:23;78829.00;;;-147.06;85.18
54453;BME280;40363;52.270;10.546;2022-12-16T06:06:08;78833.09;;;-147.06;84.86
54453;BME280;40363;52.270;10.546;2022-12-16T06:08:52;78835.16;;;-147.06;85.32
54453;BME280;40363;52.270;10.546;2022-12-16T06:11:36;78839.28;;;-147.06;85.44
54453;BME280;40363;52.270;10.546;2022-12-16T06:14:20;78849.56;;;-147.06;85.87
54453;BME280;40363;52.270;10.546;2022-12-16T06:17:04;78833.09;;;-147.06;85.57
54453;BME280;40363;52.270;10.546;2022-12-16T06:19:48;78841.34;;;-147.06;85.43
54453;BME280;40363;52.270;10.546;2022-12-16T06:22:33;78851.63;;;-147.06;85.66
54453;BME280;40363;52.270;10.546;2022-12-16T06:25:17;78861.91;;;-147.06;86.13
54453;BME280;40363;52.270;10.546;2022-12-16T06:28:01;78876.28;;;-147.06;86.53
54453;BME280;40363;52.270;10.546;2022-12-16T06:30:45;78870.13;;;-147.06;86.25
54453;BME280;40363;52.270;10.546;2022-12-16T06:33:29;78861.91;;;-147.06;86.02
54453;BME280;40363;52.270;10.546;2022-12-16T06:36:13;78853.66;;;-147.06;85.88
54453;BME280;40363;52.270;10.546;2022-12-16T06:39:13;78878.34;;;-147.06;85.86
54453;BME280;40363;52.270;10.546;2022-12-16T06:41:57;78894.81;;;-147.06;86.20
54453;BME280;40363;52.270;10.546;2022-12-16T06:44:40;78917.44;;;-147.06;86.32
54453;BME280;40363;52.270;10.546;2022-12-16T06:47:24;78911.25;;;-147.06;86.27
54453;BME280;40363;52.270;10.546;2022-12-16T06:50:08;78923.59;;;-147.06;86.27
54453;BME280;40363;52.270;10.546;2022-12-16T06:52:52;78903.03;;;-147.06;87.36
54453;BME280;40363;52.270;10.546;2022-12-16T06:55:37;78905.09;;;-147.06;86.77
54453;BME280;40363;52.270;10.546;2022-12-16T06:58:21;78903.03;;;-147.06;85.97
54453;BME280;40363;52.270;10.546;2022-12-16T07:01:05;78919.47;;;-147.06;85.95
54453;BME280;40363;52.270;10.546;2022-12-16T07:03:49;78933.88;;;-147.06;86.15
54453;BME280;40363;52.270;10.546;2022-12-16T07:06:33;78919.47;;;-147.06;85.59
54453;BME280;40363;52.270;10.546;2022-12-16T07:09:17;78931.81;;;-147.06;84.98
54453;BME280;40363;52.270;10.546;2022-12-16T07:12:03;78925.66;;;-147.06;85.10
54453;BME280;40363;52.270;10.546;2022-12-16T07:14:47;78933.88;;;-147.06;85.36
54453;BME280;40363;52.270;10.546;2022-12-16T07:17:31;78950.34;;;-147.06;85.44
54453;BME280;40363;52.270;10.546;2022-12-16T07:20:15;78944.16;;;-147.06;85.01
54453;BME280;40363;52.270;10.546;2022-12-16T07:22:59;78956.50;;;-147.06;84.52
54453;BME280;40363;52.270;10.546;2022-12-16T07:25:43;78964.72;;;-147.06;84.41
54453;BME280;40363;52.270;10.546;2022-12-16T07:28:28;78962.66;;;-147.06;84.81
54453;BME280;40363;52.270;10.546;2022-12-16T07:31:12;78960.63;;;-147.06;84.81
54453;BME280;40363;52.270;10.546;2022-12-16T07:33:56;78958.56;;;-147.06;85.26
54453;BME280;40363;52.270;10.546;2022-12-16T07:36:40;78966.78;;;-147.06;85.61
54453;BME280;40363;52.270;10.546;2022-12-16T07:39:23;78985.28;;;-147.06;85.89
54453;BME280;40363;52.270;10.546;2022-12-16T07:42:07;78985.28;;;-147.06;86.12
54453;BME280;40363;52.270;10.546;2022-12-16T07:44:53;78970.91;;;-147.06;86.06
54453;BME280;40363;52.270;10.546;2022-12-16T07:47:36;78958.56;;;-147.06;85.67
54453;BME280;40363;52.270;10.546;2022-12-16T07:50:20;78944.16;;;-147.06;85.38
54453;BME280;40363;52.270;10.546;2022-12-16T07:53:05;78931.81;;;-147.06;84.63
54453;BME280;40363;52.270;10.546;2022-12-16T07:55:48;78952.38;;;-147.06;84.47
54453;BME280;40363;52.270;10.546;2022-12-16T07:58:33;78946.22;;;-147.06;85.17
54453;BME280;40363;52.270;10.546;2022-12-16T08:01:18;78931.81;;;-147.06;84.70
54453;BME280;40363;52.270;10.546;2022-12-16T08:04:02;78931.81;;;-147.06;84.88
54453;BME280;40363;52.270;10.546;2022-12-16T08:06:46;78927.72;;;-147.06;84.54
54453;BME280;40363;52.270;10.546;2022-12-16T08:09:30;78882.47;;;-147.06;85.64
54453;BME280;40363;52.270;10.546;2022-12-16T08:12:14;78824.88;;;-147.06;86.30
54453;BME280;40363;52.270;10.546;2022-12-16T08:15:12;78855.72;;;-147.06;84.96
54453;BME280;40363;52.270;10.546;2022-12-16T08:17:58;78853.66;;;-147.06;84.50
54453;BME280;40363;52.270;10.546;2022-12-16T08:20:41;78851.63;;;-147.06;84.57
54453;BME280;40363;52.270;10.546;2022-12-16T08:23:25;78861.91;;;-147.06;84.78
54453;BME280;40363;52.270;10.546;2022-12-16T08:26:09;78857.78;;;-147.06;84.71
54453;BME280;40363;52.270;10.546;2022-12-16T08:28:53;78849.56;;;-147.06;85.05
54453;BME280;40363;52.270;10.546;2022-12-16T08:31:37;78843.38;;;-147.06;84.76
54453;BME280;40363;52.270;10.546;2022-12-16T08:34:22;78841.34;;;-147.06;84.96
54453;BME280;40363;52.270;10.546;2022-12-16T08:37:06;78837.22;;;-147.06;85.18
54453;BME280;40363;52.270;10.546;2022-12-16T08:39:50;78837.22;;;-147.06;85.36
54453;BME280;40363;52.270;10.546;2022-12-16T08:42:34;78824.88;;;-147.06;85.57
54453;BME280;40363;52.270;10.546;2022-12-16T08:45:18;78816.66;;;-147.06;85.81
54453;BME280;40363;52.270;10.546;2022-12-16T08:48:02;78798.16;;;-147.06;85.49
54453;BME280;40363;52.270;10.546;2022-12-16T08:50:47;78791.97;;;-147.06;85.50
54453;BME280;40363;52.270;10.546;2022-12-16T08:53:31;78789.91;;;-147.06;85.84
54453;BME280;40363;52.270;10.546;2022-12-16T08:56:15;78781.69;;;-147.06;86.08
54453;BME280;40363;52.270;10.546;2022-12-16T08:58:59;78773.47;;;-147.06;86.07
54453;BME280;40363;52.270;10.546;2022-12-16T09:01:43;78763.19;;;-147.06;86.38
54453;BME280;40363;52.270;10.546;2022-12-16T09:04:27;78759.06;;;-147.06;86.75
54453;BME280;40363;52.270;10.546;2022-12-16T09:07:12;78746.72;;;-147.06;86.75
54453;BME280;40363;52.270;10.546;2022-12-16T09:09:56;78742.63;;;-147.06;86.59
54453;BME280;40363;52.270;10.546;2022-12-16T09:12:48;78748.78;;;-147.06;86.73
54453;BME280;40363;52.270;10.546;2022-12-16T09:15:32;78732.34;;;-147.06;86.81
54453;BME280;40363;52.270;10.546;2022-12-16T09:18:16;78720.00;;;-147.06;86.85
54453;BME280;40363;52.270;10.546;2022-12-16T09:21:00;78728.22;;;-147.06;86.64
54453;BME280;40363;52.270;10.546;2022-12-16T09:23:45;78722.06;;;-147.06;87.03
54453;BME280;40363;52.270;10.546;2022-12-16T09:26:29;78713.81;;;-147.06;86.99
54453;BME280;40363;52.270;10.546;2022-12-16T09:29:13;78705.59;;;-147.06;87.41
54453;BME280;40363;52.270;10.546;2022-12-16T09:31:57;78705.59;;;-147.06;86.92
54453;BME280;40363;52.270;10.546;2022-12-16T09:34:41;78691.19;;;-147.06;87.38
54453;BME280;40363;52.270;10.546;2022-12-16T09:37:25;78672.69;;;-147.06;87.25
54453;BME280;40363;52.270;10.546;2022-12-16T09:40:11;78668.59;;;-147.06;87.35
54453;BME280;40363;52.270;10.546;2022-12-16T09:42:57;78660.34;;;-147.06;87.09
54453;BME280;40363;52.270;10.546;2022-12-16T09:45:44;78654.19;;;-147.06;87.16
54453;BME280;40363;52.270;10.546;2022-12-16T09:48:32;78668.59;;;-147.06;87.06
54453;BME280;40363;52.270;10.546;2022-12-16T09:51:19;78668.59;;;-147.06;88.12
54453;BME280;40363;52.270;10.546;2022-12-16T09:54:04;78639.78;;;-147.06;87.80
54453;BME280;40363;52.270;10.546;2022-12-16T09:56:49;78615.13;;;-147.06;87.89
54453;BME280;40363;52.270;10.546;2022-12-16T09:59:35;78606.88;;;-147.06;87.56
54453;BME280;40363;52.270;10.546;2022-12-16T10:02:20;78596.59;;;-147.06;87.52
54453;BME280;40363;52.270;10.546;2022-12-16T10:05:08;78582.22;;;-147.06;88.24
54453;BME280;40363;52.270;10.546;2022-12-16T10:07:54;78594.56;;;-147.06;87.87
54453;BME280;40363;52.270;10.546;2022-12-16T10:10:53;78588.38;;;-147.06;88.88
54453;BME280;40363;52.270;10.546;2022-12-16T10:13:45;78578.09;;;-147.06;88.57
54453;BME280;40363;52.270;10.546;2022-12-16T10:16:31;78545.19;;;-147.06;88.37
54453;BME280;40363;52.270;10.546;2022-12-16T10:19:24;78541.09;;;-147.06;88.20
54453;BME280;40363;52.270;10.546;2022-12-16T10:22:13;78534.91;;;-147.06;88.17
54453;BME280;40363;52.270;10.546;2022-12-16T10:24:59;78532.84;;;-147.06;88.68
54453;BME280;40363;52.270;10.546;2022-12-16T10:27:49;78553.41;;;-147.06;89.38
54453;BME280;40363;52.270;10.546;2022-12-16T10:30:36;78526.69;;;-147.06;89.53
54453;BME280;40363;52.270;10.546;2022-12-16T10:33:21;78508.19;;;-147.06;88.93
54453;BME280;40363;52.270;10.546;2022-12-16T10:36:09;78499.94;;;-147.06;88.85
54453;BME280;40363;52.270;10.546;2022-12-16T10:38:54;78487.63;;;-147.06;88.37
54453;BME280;40363;52.270;10.546;2022-12-16T10:41:40;78489.66;;;-147.06;88.52
54453;BME280;40363;52.270;10.546;2022-12-16T10:44:24;78510.22;;;-147.06;88.78
54453;BME280;40363;52.270;10.546;2022-12-16T10:47:10;78499.94;;;-147.06;89.20
54453;BME280;40363;52.270;10.546;2022-12-16T10:49:54;78481.44;;;-147.06;88.90
54453;BME280;40363;52.270;10.546;2022-12-16T10:52:48;78465.00;;;-147.06;87.89
54453;BME280;40363;52.270;10.546;2022-12-16T10:55:36;78462.94;;;-147.06;88.14
54453;BME280;40363;52.270;10.546;2022-12-16T10:58:24;78446.50;;;-147.06;88.31
54453;BME280;40363;52.270;10.546;2022-12-16T11:01:19;78438.25;;;-147.06;88.27
54453;BME280;40363;52.270;10.546;2022-12-16T11:04:06;78438.25;;;-147.06;88.09
54453;BME280;40363;52.270;10.546;2022-12-16T11:07:21;78446.50;;;-147.06;88.74
54453;BME280;40363;52.270;10.546;2022-12-16T11:10:20;78450.59;;;-147.06;88.83
54453;BME280;40363;52.270;10.546;2022-12-16T11:13:10;78423.88;;;-147.06;88.49
54453;BME280;40363;52.270;10.546;2022-12-16T11:16:04;78427.97;;;-147.06;88.11
54453;BME280;40363;52.270;10.546;2022-12-16T11:18:49;78430.03;;;-147.06;88.45
54453;BME280;40363;52.270;10.546;2022-12-16T11:21:34;78425.94;;;-147.06;88.90
54453;BME280;40363;52.270;10.546;2022-12-16T11:24:18;78405.34;;;-147.06;88.33
54453;BME280;40363;52.270;10.546;2022-12-16T11:27:04;78405.34;;;-147.06;88.22
54453;BME280;40363;52.270;10.546;2022-12-16T11:29:48;78380.69;;;-147.06;87.79
54453;BME280;40363;52.270;10.546;2022-12-16T11:32:33;78370.41;;;-147.06;88.11
54453;BME280;40363;52.270;10.546;2022-12-16T11:35:18;78364.22;;;-147.06;87.69
54453;BME280;40363;52.270;10.546;2022-12-16T11:38:03;78364.22;;;-147.06;87.64
54453;BME280;40363;52.270;10.546;2022-12-16T11:40:51;78368.34;;;-147.06;88.12
54453;BME280;40363;52.270;10.546;2022-12-16T11:43:36;78347.78;;;-147.06;87.97
54453;BME280;40363;52.270;10.546;2022-12-16T11:46:31;78360.13;;;-147.06;88.03
54453;BME280;40363;52.270;10.546;2022-12-16T11:49:16;78347.78;;;-147.06;88.04
54453;BME280;40363;52.270;10.546;2022-12-16T11:52:02;78341.63;;;-147.06;88.08
54453;BME280;40363;52.270;10.546;2022-12-16T11:54:52;78335.44;;;-147.06;88.04
54453;BME280;40363;52.270;10.546;2022-12-16T11:57:38;78339.56;;;-147.06;87.92
54453;BME280;40363;52.270;10.546;2022-12-16T12:00:24;78323.09;;;-147.06;88.05
54453;BME280;40363;52.270;10.546;2022-12-16T12:03:08;78314.88;;;-147.06;87.39
54453;BME280;40363;52.270;10.546;2022-12-16T12:05:55;78310.78;;;-147.06;86.63
54453;BME280;40363;52.270;10.546;2022-12-16T12:08:44;78298.44;;;-147.06;86.49
54453;BME280;40363;52.270;10.546;2022-12-16T12:11:33;78294.31;;;-147.06;86.13
54453;BME280;40363;52.270;10.546;2022-12-16T12:14:20;78290.22;;;-147.06;86.36
54453;BME280;40363;52.270;10.546;2022-12-16T12:17:13;78290.22;;;-147.06;86.45
54453;BME280;40363;52.270;10.546;2022-12-16T12:20:01;78273.75;;;-147.06;86.88
54453;BME280;40363;52.270;10.546;2022-12-16T12:22:46;78279.94;;;-147.06;86.55
54453;BME280;40363;52.270;10.546;2022-12-16T12:25:33;78284.03;;;-147.06;86.25
54453;BME280;40363;52.270;10.546;2022-12-16T12:28:25;78275.81;;;-147.06;86.56
54453;BME280;40363;52.270;10.546;2022-12-16T12:31:15;78284.03;;;-147.06;86.72
54453;BME280;40363;52.270;10.546;2022-12-16T12:34:13;78286.09;;;-147.06;86.65
54453;BME280;40363;52.270;10.546;2022-12-16T12:37:01;78290.22;;;-147.06;86.70
54453;BME280;40363;52.270;10.546;2022-12-16T12:39:47;78290.22;;;-147.06;86.58
54453;BME280;40363;52.270;10.546;2022-12-16T12:42:36;78288.16;;;-147.06;87.15
54453;BME280;40363;52.270;10.546;2022-12-16T12:45:40;78290.22;;;-147.06;87.56
54453;BME280;40363;52.270;10.546;2022-12-16T12:48:27;78290.22;;;-147.06;87.37
54453;BME280;40363;52.270;10.546;2022-12-16T12:51:13;78292.25;;;-147.06;87.55
54453;BME280;40363;52.270;10.546;2022-12-16T12:54:17;78286.09;;;-147.06;87.65
54453;BME280;40363;52.270;10.546;2022-12-16T12:57:04;78306.66;;;-147.06;88.12
54453;BME280;40363;52.270;10.546;2022-12-16T12:59:49;78281.97;;;-147.06;87.83
54453;BME280;40363;52.270;10.546;2022-12-16T13:02:40;78273.75;;;-147.06;87.83
54453;BME280;40363;52.270;10.546;2022-12-16T13:05:26;78273.75;;;-147.06;87.36
54453;BME280;40363;52.270;10.546;2022-12-16T13:08:30;78281.97;;;-147.06;87.41
54453;BME280;40363;52.270;10.546;2022-12-16T13:11:14;78281.97;;;-147.06;87.51
54453;BME280;40363;52.270;10.546;2022-12-16T13:13:58;78294.31;;;-147.06;87.66
54453;BME280;40363;52.270;10.546;2022-12-16T13:19:57;78281.97;;;-147.06;88.07
54453;BME280;40363;52.270;10.546;2022-12-16T13:22:42;78273.75;;;-147.06;88.19
54453;BME280;40363;52.270;10.546;2022-12-16T13:25:31;78284.03;;;-147.06;88.12
54453;BME280;40363;52.270;10.546;2022-12-16T13:28:19;78290.22;;;-147.06;88.50
54453;BME280;40363;52.270;10.546;2022-12-16T13:31:04;78296.38;;;-147.06;88.57
54453;BME280;40363;52.270;10.546;2022-12-16T13:33:49;78290.22;;;-147.06;88.55
54453;BME280;40363;52.270;10.546;2022-12-16T13:36:34;78298.44;;;-147.06;88.56
54453;BME280;40363;52.270;10.546;2022-12-16T13:39:20;78306.66;;;-147.06;88.68
54453;BME280;40363;52.270;10.546;2022-12-16T13:42:04;78308.72;;;-147.06;89.02